Terminal Aerodrome Forecast
Issued by NWS

Current Version | Previous Version | Text Only | Print | Product List | Glossary On
Versions: 1 2 3 4 5 6 7 8 9 10 11 12 13 14 15 16 17 18 19 20
828
FTUS46 KMFR 040558 CCA
TAFRBG
TAF COR
KRBG 040558Z 0406/0506 VRB03KT P6SM OVC008
     FM041100 17003KT P6SM -RA BKN010 OVC025
     FM041700 VRB06KT 3SM RA BR BKN004 BKN008 OVC015
     FM042100 34008KT 6SM -SHRA BKN007 OVC015
     FM050200 36004KT P6SM BKN015 OVC025=

USA.gov is the U.S. government's official web portal to all federal, state and local government web resources and services.